sensor_id;sensor_type;location;lat;lon;timestamp;pressure;altitude;pressure_sealevel;temperature;humidity
61408;BME280;47274;43.054;25.146;2023-02-22T00:01:31;95384.25;;;9.80;46.80
61408;BME280;47274;43.054;25.146;2023-02-22T00:04:05;95383.31;;;9.81;46.63
61408;BME280;47274;43.054;25.146;2023-02-22T00:06:31;95407.41;;;10.06;46.49
61408;BME280;47274;43.054;25.146;2023-02-22T00:08:58;95405.31;;;10.02;46.62
61408;BME280;47274;43.054;25.146;2023-02-22T00:11:24;95404.47;;;9.83;46.96
61408;BME280;47274;43.054;25.146;2023-02-22T00:13:51;95394.50;;;9.80;46.45
61408;BME280;47274;43.054;25.146;2023-02-22T00:16:19;95426.44;;;9.86;46.63
61408;BME280;47274;43.054;25.146;2023-02-22T00:18:45;95388.31;;;9.55;46.70
61408;BME280;47274;43.054;25.146;2023-02-22T00:21:12;95418.44;;;9.71;46.82
61408;BME280;47274;43.054;25.146;2023-02-22T00:23:41;95414.75;;;9.73;46.65
61408;BME280;47274;43.054;25.146;2023-02-22T00:26:12;95416.41;;;9.75;46.68
61408;BME280;47274;43.054;25.146;2023-02-22T00:28:48;95378.41;;;9.60;46.54
61408;BME280;47274;43.054;25.146;2023-02-22T00:31:14;95395.50;;;9.69;46.10
61408;BME280;47274;43.054;25.146;2023-02-22T00:33:40;95387.97;;;9.68;46.06
61408;BME280;47274;43.054;25.146;2023-02-22T00:36:07;95386.84;;;9.70;45.90
61408;BME280;47274;43.054;25.146;2023-02-22T00:38:34;95418.59;;;9.87;46.32
61408;BME280;47274;43.054;25.146;2023-02-22T00:41:01;95419.03;;;9.83;46.11
61408;BME280;47274;43.054;25.146;2023-02-22T00:43:26;95413.75;;;9.84;46.02
61408;BME280;47274;43.054;25.146;2023-02-22T00:45:52;95413.09;;;9.82;45.96
61408;BME280;47274;43.054;25.146;2023-02-22T00:48:18;95418.63;;;9.78;46.11
61408;BME280;47274;43.054;25.146;2023-02-22T00:50:44;95398.91;;;9.60;45.99
61408;BME280;47274;43.054;25.146;2023-02-22T00:53:13;95420.56;;;9.76;46.16
61408;BME280;47274;43.054;25.146;2023-02-22T00:55:39;95391.66;;;9.56;46.36
61408;BME280;47274;43.054;25.146;2023-02-22T00:58:05;95385.47;;;9.58;46.05
61408;BME280;47274;43.054;25.146;2023-02-22T01:00:36;95422.84;;;9.79;46.28
61408;BME280;47274;43.054;25.146;2023-02-22T01:03:04;95413.31;;;9.71;46.03
61408;BME280;47274;43.054;25.146;2023-02-22T01:05:30;95414.41;;;9.68;46.41
61408;BME280;47274;43.054;25.146;2023-02-22T01:07:58;95377.44;;;9.43;46.71
61408;BME280;47274;43.054;25.146;2023-02-22T01:10:27;95425.97;;;9.72;46.45
61408;BME280;47274;43.054;25.146;2023-02-22T01:12:54;95389.03;;;9.47;46.75
61408;BME280;47274;43.054;25.146;2023-02-22T01:15:23;95427.34;;;9.67;46.49
61408;BME280;47274;43.054;25.146;2023-02-22T01:17:51;95418.09;;;9.56;46.21
61408;BME280;47274;43.054;25.146;2023-02-22T01:20:19;95356.91;;;9.25;46.66
61408;BME280;47274;43.054;25.146;2023-02-22T01:22:47;95390.53;;;9.40;46.56
61408;BME280;47274;43.054;25.146;2023-02-22T01:25:19;95409.38;;;9.49;46.92
61408;BME280;47274;43.054;25.146;2023-02-22T01:27:45;95414.63;;;9.47;47.07
61408;BME280;47274;43.054;25.146;2023-02-22T01:30:13;95394.75;;;9.32;47.40
61408;BME280;47274;43.054;25.146;2023-02-22T01:32:42;95420.69;;;9.46;47.21
61408;BME280;47274;43.054;25.146;2023-02-22T01:35:12;95399.16;;;9.39;47.20
61408;BME280;47274;43.054;25.146;2023-02-22T01:37:39;95426.34;;;9.50;47.52
61408;BME280;47274;43.054;25.146;2023-02-22T01:40:07;95415.72;;;9.45;47.29
61408;BME280;47274;43.054;25.146;2023-02-22T01:42:35;95408.16;;;9.43;46.85
61408;BME280;47274;43.054;25.146;2023-02-22T01:48:02;95410.97;;;9.50;47.43
61408;BME280;47274;43.054;25.146;2023-02-22T01:50:32;95382.34;;;9.37;47.56
61408;BME280;47274;43.054;25.146;2023-02-22T01:52:59;95415.53;;;9.56;47.32
61408;BME280;47274;43.054;25.146;2023-02-22T01:55:27;95378.66;;;9.39;46.47
61408;BME280;47274;43.054;25.146;2023-02-22T01:57:53;95407.47;;;9.51;47.04
61408;BME280;47274;43.054;25.146;2023-02-22T02:00:20;95412.91;;;9.66;47.18
61408;BME280;47274;43.054;25.146;2023-02-22T02:03:00;95400.56;;;9.61;47.11
61408;BME280;47274;43.054;25.146;2023-02-22T02:05:28;95380.16;;;9.42;46.98
61408;BME280;47274;43.054;25.146;2023-02-22T02:08:00;95381.38;;;9.38;47.27
61408;BME280;47274;43.054;25.146;2023-02-22T02:10:28;95371.84;;;9.30;47.24
61408;BME280;47274;43.054;25.146;2023-02-22T02:12:54;95403.69;;;9.55;47.10
61408;BME280;47274;43.054;25.146;2023-02-22T02:15:31;95383.00;;;9.39;47.21
61408;BME280;47274;43.054;25.146;2023-02-22T02:18:07;95378.66;;;9.39;47.40
61408;BME280;47274;43.054;25.146;2023-02-22T02:23:37;95409.28;;;9.68;47.12
61408;BME280;47274;43.054;25.146;2023-02-22T02:34:58;95381.06;;;9.51;47.71
61408;BME280;47274;43.054;25.146;2023-02-22T02:40:26;95380.38;;;9.48;47.49
61408;BME280;47274;43.054;25.146;2023-02-22T02:45:29;95389.50;;;9.61;47.71
61408;BME280;47274;43.054;25.146;2023-02-22T02:47:58;95360.09;;;9.37;47.51
61408;BME280;47274;43.054;25.146;2023-02-22T02:50:38;95371.75;;;9.49;47.62
61408;BME280;47274;43.054;25.146;2023-02-22T02:53:07;95406.78;;;9.77;47.63
61408;BME280;47274;43.054;25.146;2023-02-22T02:55:36;95412.44;;;9.80;47.49
61408;BME280;47274;43.054;25.146;2023-02-22T02:58:04;95416.75;;;9.80;47.49
61408;BME280;47274;43.054;25.146;2023-02-22T03:00:33;95410.03;;;9.79;47.52
61408;BME280;47274;43.054;25.146;2023-02-22T03:03:42;95420.56;;;9.76;48.16
61408;BME280;47274;43.054;25.146;2023-02-22T03:06:42;95414.19;;;9.80;48.05
61408;BME280;47274;43.054;25.146;2023-02-22T03:09:34;95398.28;;;9.76;48.46
61408;BME280;47274;43.054;25.146;2023-02-22T03:15:05;95400.41;;;9.81;48.83
61408;BME280;47274;43.054;25.146;2023-02-22T03:17:52;95403.94;;;9.80;48.89
61408;BME280;47274;43.054;25.146;2023-02-22T03:23:03;95406.78;;;9.77;49.55
61408;BME280;47274;43.054;25.146;2023-02-22T03:25:39;95410.59;;;9.72;49.84
61408;BME280;47274;43.054;25.146;2023-02-22T03:28:10;95403.63;;;9.65;49.79
61408;BME280;47274;43.054;25.146;2023-02-22T03:30:47;95408.59;;;9.66;49.77
61408;BME280;47274;43.054;25.146;2023-02-22T03:33:24;95414.81;;;9.64;49.97
61408;BME280;47274;43.054;25.146;2023-02-22T03:36:04;95407.72;;;9.58;49.93
61408;BME280;47274;43.054;25.146;2023-02-22T03:38:32;95379.09;;;9.35;50.34
61408;BME280;47274;43.054;25.146;2023-02-22T03:41:03;95384.91;;;9.37;49.54
61408;BME280;47274;43.054;25.146;2023-02-22T03:43:35;95405.47;;;9.45;49.92
61408;BME280;47274;43.054;25.146;2023-02-22T03:46:06;95402.25;;;9.43;50.42
61408;BME280;47274;43.054;25.146;2023-02-22T03:48:53;95411.84;;;9.41;50.54
61408;BME280;47274;43.054;25.146;2023-02-22T03:51:23;95400.28;;;9.37;49.87
61408;BME280;47274;43.054;25.146;2023-02-22T03:53:56;95413.44;;;9.42;50.29
61408;BME280;47274;43.054;25.146;2023-02-22T03:56:37;95383.59;;;9.23;50.38
61408;BME280;47274;43.054;25.146;2023-02-22T03:59:07;95388.19;;;9.19;50.27
61408;BME280;47274;43.054;25.146;2023-02-22T04:01:33;95415.31;;;9.40;49.98
61408;BME280;47274;43.054;25.146;2023-02-22T04:03:59;95412.75;;;9.40;49.94
61408;BME280;47274;43.054;25.146;2023-02-22T04:06:27;95407.94;;;9.37;49.87
61408;BME280;47274;43.054;25.146;2023-02-22T04:08:53;95407.28;;;9.35;50.30
61408;BME280;47274;43.054;25.146;2023-02-22T04:11:20;95404.47;;;9.28;50.32
61408;BME280;47274;43.054;25.146;2023-02-22T04:13:46;95413.63;;;9.31;50.13
61408;BME280;47274;43.054;25.146;2023-02-22T04:16:12;95382.28;;;9.09;50.02
61408;BME280;47274;43.054;25.146;2023-02-22T04:18:38;95404.91;;;9.23;49.80
61408;BME280;47274;43.054;25.146;2023-02-22T04:21:05;95410.06;;;9.14;50.59
61408;BME280;47274;43.054;25.146;2023-02-22T04:23:35;95383.19;;;8.90;49.97
61408;BME280;47274;43.054;25.146;2023-02-22T04:26:02;95404.19;;;8.94;50.58
61408;BME280;47274;43.054;25.146;2023-02-22T04:28:31;95372.97;;;8.81;50.89
61408;BME280;47274;43.054;25.146;2023-02-22T04:31:07;95403.91;;;8.97;50.43
61408;BME280;47274;43.054;25.146;2023-02-22T04:33:33;95406.19;;;9.00;50.84
61408;BME280;47274;43.054;25.146;2023-02-22T04:36:00;95395.41;;;9.06;51.13
61408;BME280;47274;43.054;25.146;2023-02-22T04:38:27;95412.00;;;9.30;50.58
61408;BME280;47274;43.054;25.146;2023-02-22T04:40:55;95405.66;;;9.34;50.13
61408;BME280;47274;43.054;25.146;2023-02-22T04:43:22;95389.72;;;9.40;49.69
61408;BME280;47274;43.054;25.146;2023-02-22T04:45:51;95370.06;;;9.40;49.15
61408;BME280;47274;43.054;25.146;2023-02-22T04:48:17;95378.78;;;9.47;49.45
61408;BME280;47274;43.054;25.146;2023-02-22T04:50:43;95397.03;;;9.62;49.52
61408;BME280;47274;43.054;25.146;2023-02-22T04:53:09;95374.03;;;9.53;49.42
61408;BME280;47274;43.054;25.146;2023-02-22T04:55:37;95400.56;;;9.79;49.41
61408;BME280;47274;43.054;25.146;2023-02-22T04:58:03;95376.25;;;9.65;49.09
61408;BME280;47274;43.054;25.146;2023-02-22T05:00:33;95372.09;;;9.64;49.08
61408;BME280;47274;43.054;25.146;2023-02-22T05:03:01;95405.25;;;9.84;48.93
61408;BME280;47274;43.054;25.146;2023-02-22T05:05:27;95417.44;;;9.82;49.11
61408;BME280;47274;43.054;25.146;2023-02-22T05:07:53;95378.25;;;9.71;49.13
61408;BME280;47274;43.054;25.146;2023-02-22T05:10:19;95399.53;;;9.72;49.38
61408;BME280;47274;43.054;25.146;2023-02-22T05:12:45;95387.88;;;9.60;49.45
61408;BME280;47274;43.054;25.146;2023-02-22T05:15:16;95378.72;;;9.57;49.68
61408;BME280;47274;43.054;25.146;2023-02-22T05:17:42;95387.88;;;9.60;50.13
61408;BME280;47274;43.054;25.146;2023-02-22T05:22:46;95417.38;;;9.91;49.90
61408;BME280;47274;43.054;25.146;2023-02-22T05:25:12;95424.50;;;9.88;50.18
61408;BME280;47274;43.054;25.146;2023-02-22T05:27:38;95423.44;;;9.90;50.12
61408;BME280;47274;43.054;25.146;2023-02-22T05:30:06;95431.50;;;9.95;50.35
61408;BME280;47274;43.054;25.146;2023-02-22T05:32:34;95411.25;;;9.75;50.34
61408;BME280;47274;43.054;25.146;2023-02-22T05:35:00;95400.50;;;9.71;50.23
61408;BME280;47274;43.054;25.146;2023-02-22T05:37:25;95440.56;;;9.90;50.23
61408;BME280;47274;43.054;25.146;2023-02-22T05:39:51;95432.22;;;9.88;50.22
61408;BME280;47274;43.054;25.146;2023-02-22T05:42:18;95438.81;;;9.90;50.45
61408;BME280;47274;43.054;25.146;2023-02-22T05:44:44;95409.78;;;9.72;50.53
61408;BME280;47274;43.054;25.146;2023-02-22T05:47:10;95395.28;;;9.63;50.66
61408;BME280;47274;43.054;25.146;2023-02-22T05:49:35;95444.69;;;10.01;50.91
61408;BME280;47274;43.054;25.146;2023-02-22T05:52:01;95456.34;;;10.13;50.91
61408;BME280;47274;43.054;25.146;2023-02-22T05:54:27;95461.47;;;10.13;50.58
61408;BME280;47274;43.054;25.146;2023-02-22T05:56:53;95454.13;;;10.28;50.34
61408;BME280;47274;43.054;25.146;2023-02-22T05:59:19;95437.38;;;10.24;49.96
61408;BME280;47274;43.054;25.146;2023-02-22T06:01:45;95431.28;;;10.25;50.16
61408;BME280;47274;43.054;25.146;2023-02-22T06:04:11;95450.84;;;10.53;49.91
61408;BME280;47274;43.054;25.146;2023-02-22T06:06:37;95433.31;;;10.49;49.70
61408;BME280;47274;43.054;25.146;2023-02-22T06:09:02;95462.56;;;10.74;49.53
61408;BME280;47274;43.054;25.146;2023-02-22T06:11:28;95462.75;;;10.80;49.04
61408;BME280;47274;43.054;25.146;2023-02-22T06:13:54;95480.03;;;10.96;49.32
61408;BME280;47274;43.054;25.146;2023-02-22T06:16:20;95469.50;;;11.07;48.95
61408;BME280;47274;43.054;25.146;2023-02-22T06:18:47;95482.13;;;11.19;49.09
61408;BME280;47274;43.054;25.146;2023-02-22T06:21:13;95477.38;;;11.32;48.19
61408;BME280;47274;43.054;25.146;2023-02-22T06:23:38;95448.84;;;11.43;47.73
61408;BME280;47274;43.054;25.146;2023-02-22T06:26:04;95479.47;;;11.62;47.87
61408;BME280;47274;43.054;25.146;2023-02-22T06:28:30;95461.19;;;11.74;47.72
61408;BME280;47274;43.054;25.146;2023-02-22T06:30:56;95472.09;;;11.94;46.95
61408;BME280;47274;43.054;25.146;2023-02-22T06:33:22;95468.91;;;12.08;47.37
61408;BME280;47274;43.054;25.146;2023-02-22T06:35:47;95471.34;;;12.26;46.33
61408;BME280;47274;43.054;25.146;2023-02-22T06:38:23;95466.38;;;12.32;46.52
61408;BME280;47274;43.054;25.146;2023-02-22T06:40:49;95474.94;;;12.41;46.19
61408;BME280;47274;43.054;25.146;2023-02-22T06:43:16;95416.34;;;12.27;45.99
61408;BME280;47274;43.054;25.146;2023-02-22T06:45:42;95478.81;;;12.62;45.55
61408;BME280;47274;43.054;25.146;2023-02-22T06:48:08;95458.69;;;12.57;46.11
61408;BME280;47274;43.054;25.146;2023-02-22T06:50:34;95483.97;;;13.27;45.01
61408;BME280;47274;43.054;25.146;2023-02-22T06:53:00;95486.56;;;13.27;44.28
61408;BME280;47274;43.054;25.146;2023-02-22T06:55:28;95483.59;;;13.46;44.63
61408;BME280;47274;43.054;25.146;2023-02-22T06:57:54;95484.25;;;13.96;43.27
61408;BME280;47274;43.054;25.146;2023-02-22T07:00:23;95487.28;;;13.99;42.63
61408;BME280;47274;43.054;25.146;2023-02-22T07:02:50;95481.81;;;13.94;43.03
61408;BME280;47274;43.054;25.146;2023-02-22T07:05:18;95470.34;;;14.05;42.15
61408;BME280;47274;43.054;25.146;2023-02-22T07:07:46;95480.63;;;14.13;41.75
61408;BME280;47274;43.054;25.146;2023-02-22T07:10:21;95489.22;;;14.29;41.99
61408;BME280;47274;43.054;25.146;2023-02-22T07:12:48;95484.31;;;14.50;42.26
61408;BME280;47274;43.054;25.146;2023-02-22T07:15:15;95467.44;;;14.31;41.97
61408;BME280;47274;43.054;25.146;2023-02-22T07:17:42;95486.88;;;14.73;41.58
61408;BME280;47274;43.054;25.146;2023-02-22T07:20:08;95472.34;;;15.33;41.02
